Aviation Digital Data Service (ADDS)

Output produced by METARs form (0823 UTC 26 January 2015)
found at http://aviationweather.gov/adds/metars/
 
KPWM 260528Z 2606/2706 33007KT P6SM BKN250 
     FM261400 03006KT P6SM SCT120 OVC200 
     FM270000 02012KT P6SM BKN025 OVC060